Time;durP1;ratioP1;P1;durP2;ratioP2;P2;SDS_P1;SDS_P2;PMS_P1;PMS_P2;Temp;Humidity;BMP_temperature;BMP_pressure;BME280_temperature;BME280_humidity;BME280_pressure;Samples;Min_cycle;Max_cycle;Signal;HPM_P1;HPM_P2
2022/12/21 00:01:05;;;;;;;4.97;3.43;;;9.50;99.90;;;;;;4994608;28;20518;-68
2022/12/21 00:03:30;;;;;;;3.30;3.00;;;9.60;99.90;;;;;;4994637;28;20163;-68
2022/12/21 00:05:57;;;;;;;3.83;3.43;;;9.60;99.90;;;;;;4994849;28;20550;-69
2022/12/21 00:08:22;;;;;;;4.77;3.30;;;9.50;99.90;;;;;;4994275;28;20203;-69
2022/12/21 00:13:30;;;;;;;8.13;3.60;;;9.50;99.90;;;;;;5031686;28;20237;-67
2022/12/21 00:16:10;;;;;;;3.67;3.37;;;9.60;99.90;;;;;;5033662;28;20503;-68
2022/12/21 00:18:36;;;;;;;3.37;3.13;;;9.60;99.90;;;;;;5033374;28;20417;-68
2022/12/21 00:21:05;;;;;;;4.33;3.93;;;9.50;99.90;;;;;;5033549;28;20413;-68
2022/12/21 00:23:32;;;;;;;5.73;3.87;;;9.40;99.90;;;;;;5033518;28;20484;-68
2022/12/21 00:25:59;;;;;;;4.33;3.93;;;9.20;99.90;;;;;;5033443;28;20413;-68
2022/12/21 00:28:25;;;;;;;4.17;3.77;;;9.10;99.90;;;;;;5015321;28;20443;-69
2022/12/21 00:30:50;;;;;;;7.93;3.77;;;8.90;99.90;;;;;;5033376;28;20413;-68
2022/12/21 00:33:16;;;;;;;5.00;4.10;;;8.90;99.90;;;;;;5033315;28;20614;-68
2022/12/21 00:35:50;;;;;;;4.50;4.10;;;8.90;99.90;;;;;;5033363;28;20178;-68
2022/12/21 00:38:15;;;;;;;4.03;3.70;;;8.90;99.90;;;;;;5032919;28;20223;-68
2022/12/21 00:40:41;;;;;;;5.70;4.20;;;8.90;99.90;;;;;;5033237;28;20424;-68
2022/12/21 00:43:07;;;;;;;5.07;3.70;;;8.80;99.90;;;;;;5033148;28;20186;-68
2022/12/21 00:45:32;;;;;;;4.60;4.03;;;8.90;99.90;;;;;;5033081;28;20417;-68
2022/12/21 00:47:59;;;;;;;4.50;4.10;;;8.80;99.90;;;;;;5032817;28;20174;-69
2022/12/21 00:50:25;;;;;;;6.13;3.70;;;8.80;99.90;;;;;;5032750;28;20174;-68
2022/12/21 00:52:50;;;;;;;5.30;2.93;;;8.90;99.90;;;;;;5030878;28;20518;-67
2022/12/21 00:55:16;;;;;;;3.90;3.20;;;8.90;99.90;;;;;;5031579;28;20206;-68
2022/12/21 00:57:41;;;;;;;5.80;3.63;;;9.00;99.90;;;;;;5032204;28;20174;-70
2022/12/21 01:00:08;;;;;;;4.43;4.00;;;9.00;99.90;;;;;;5026954;28;20228;-65
2022/12/21 01:02:35;;;;;;;4.80;3.40;;;9.20;99.90;;;;;;5013027;28;20190;-65
2022/12/21 01:05:01;;;;;;;6.43;3.53;;;9.20;99.90;;;;;;5013065;28;20432;-65
2022/12/21 01:07:27;;;;;;;3.90;3.20;;;9.20;99.90;;;;;;5013086;28;20217;-67
2022/12/21 01:09:53;;;;;;;4.07;3.67;;;9.20;99.90;;;;;;5020066;28;20436;-67
2022/12/21 01:12:18;;;;;;;3.83;3.40;;;9.10;99.90;;;;;;5031321;28;20482;-68
2022/12/21 01:14:44;;;;;;;3.90;3.60;;;9.10;99.90;;;;;;5028382;28;20175;-67
2022/12/21 01:17:09;;;;;;;7.70;3.63;;;9.10;99.90;;;;;;5024117;28;20193;-67
2022/12/21 01:19:35;;;;;;;3.63;3.33;;;9.10;99.90;;;;;;5022480;28;20189;-68
2022/12/21 01:22:00;;;;;;;4.53;3.57;;;9.10;99.90;;;;;;5021706;28;20237;-67
2022/12/21 01:24:26;;;;;;;4.00;3.43;;;9.20;99.90;;;;;;5023908;28;20183;-68
2022/12/21 01:26:51;;;;;;;9.00;4.70;;;9.20;99.90;;;;;;5021137;28;20209;-68
2022/12/21 01:29:17;;;;;;;4.17;3.40;;;9.20;99.90;;;;;;5022843;28;20335;-67
2022/12/21 01:31:42;;;;;;;6.60;4.40;;;9.20;99.90;;;;;;5021881;28;20198;-68
2022/12/21 01:34:08;;;;;;;5.67;3.40;;;9.20;99.90;;;;;;5023829;28;20551;-67
2022/12/21 01:36:33;;;;;;;4.00;3.37;;;9.10;99.90;;;;;;5032277;28;20206;-68
2022/12/21 01:38:59;;;;;;;4.73;3.70;;;9.10;99.90;;;;;;5031626;28;20170;-68
2022/12/21 01:41:27;;;;;;;3.60;3.27;;;9.00;99.90;;;;;;5032165;28;20668;-67
2022/12/21 01:44:00;;;;;;;5.17;3.50;;;9.00;99.90;;;;;;5032163;28;20178;-67
2022/12/21 01:46:41;;;;;;;8.50;4.47;;;9.00;99.90;;;;;;5032193;28;20506;-67
2022/12/21 01:49:29;;;;;;;8.53;3.87;;;9.00;99.90;;;;;;5031842;28;20948;-68
2022/12/21 01:52:11;;;;;;;4.40;4.00;;;8.90;99.90;;;;;;5031447;28;20468;-67
2022/12/21 01:54:49;;;;;;;4.73;4.07;;;9.00;99.90;;;;;;5032059;28;20425;-68
2022/12/21 01:57:16;;;;;;;3.93;3.37;;;9.00;99.90;;;;;;5031985;28;20431;-67
2022/12/21 01:59:48;;;;;;;4.67;3.33;;;9.00;99.90;;;;;;5031708;28;20421;-67
2022/12/21 02:02:21;;;;;;;3.90;3.50;;;9.00;99.90;;;;;;5031870;28;20495;-67
2022/12/21 02:04:49;;;;;;;3.73;3.40;;;9.10;99.90;;;;;;5032021;28;20424;-67
2022/12/21 02:07:16;;;;;;;4.10;3.33;;;9.10;99.90;;;;;;5031960;28;20567;-68
2022/12/21 02:09:42;;;;;;;4.90;4.17;;;9.20;99.90;;;;;;5031497;28;20471;-68
2022/12/21 02:12:13;;;;;;;3.70;3.40;;;9.10;99.90;;;;;;5031697;28;20480;-68
2022/12/21 02:14:42;;;;;;;3.80;3.50;;;9.20;99.90;;;;;;5031898;28;20425;-68
2022/12/21 02:17:26;;;;;;;4.30;3.50;;;9.20;99.90;;;;;;5031798;28;20428;-67
2022/12/21 02:20:19;;;;;;;3.87;3.37;;;9.20;99.90;;;;;;5031612;28;20913;-68
2022/12/21 02:23:11;;;;;;;4.30;3.90;;;9.20;99.90;;;;;;5031769;28;20433;-68
2022/12/21 02:26:00;;;;;;;4.43;4.13;;;9.20;99.90;;;;;;5031749;28;20916;-68
2022/12/21 02:28:33;;;;;;;5.97;3.33;;;9.20;99.90;;;;;;5031367;28;20902;-67
2022/12/21 02:31:13;;;;;;;3.53;3.23;;;9.20;99.90;;;;;;5032002;28;20976;-68
2022/12/21 02:34:03;;;;;;;3.97;3.57;;;9.30;99.90;;;;;;5035060;28;20829;-68
2022/12/21 02:36:54;;;;;;;4.90;3.53;;;9.20;99.90;;;;;;5035600;28;20766;-68
2022/12/21 02:39:49;;;;;;;4.73;4.23;;;9.20;99.90;;;;;;5035214;28;20474;-68
2022/12/21 02:45:58;;;;;;;4.80;3.70;;;9.10;99.90;;;;;;5008134;28;20470;-68
2022/12/21 02:48:31;;;;;;;4.23;3.83;;;9.00;99.90;;;;;;5029023;28;20524;-69
2022/12/21 02:51:03;;;;;;;3.93;3.63;;;9.00;99.90;;;;;;5035264;28;20792;-68
2022/12/21 02:53:33;;;;;;;6.13;4.50;;;9.00;99.90;;;;;;5035213;28;20465;-68
2022/12/21 02:55:59;;;;;;;5.07;3.83;;;9.00;99.90;;;;;;5035195;28;20405;-68
2022/12/21 02:58:25;;;;;;;4.90;4.50;;;8.90;99.90;;;;;;5034902;28;20409;-68
2022/12/21 03:01:16;;;;;;;4.97;4.00;;;8.90;99.90;;;;;;5017381;28;20257;-69
2022/12/21 03:03:56;;;;;;;4.47;4.07;;;8.90;99.90;;;;;;5035041;28;20182;-68
2022/12/21 03:06:55;;;;;;;4.03;3.70;;;8.80;99.90;;;;;;5035132;28;20817;-69
2022/12/21 03:09:55;;;;;;;5.93;4.23;;;8.80;99.90;;;;;;5034741;28;20412;-69
2022/12/21 03:12:48;;;;;;;3.93;3.63;;;8.80;99.90;;;;;;5034724;28;20712;-68
2022/12/21 03:15:36;;;;;;;4.57;4.17;;;8.80;99.90;;;;;;5034874;28;20471;-68
2022/12/21 03:18:16;;;;;;;5.17;4.60;;;8.80;99.90;;;;;;5034796;28;20514;-68
2022/12/21 03:21:05;;;;;;;6.00;4.20;;;8.70;99.90;;;;;;5034763;28;20401;-68
2022/12/21 03:23:45;;;;;;;7.27;4.40;;;8.80;99.90;;;;;;5034700;28;20413;-68
2022/12/21 03:26:37;;;;;;;4.97;4.27;;;8.70;99.90;;;;;;5034655;28;20504;-68
2022/12/21 03:29:04;;;;;;;5.00;4.60;;;8.70;99.90;;;;;;5034334;28;20428;-68
2022/12/21 03:31:36;;;;;;;4.80;3.87;;;8.70;99.90;;;;;;5034342;28;20560;-68
2022/12/21 03:34:23;;;;;;;3.93;3.53;;;8.70;99.90;;;;;;5034548;28;20445;-68
2022/12/21 03:36:52;;;;;;;5.17;3.90;;;8.70;99.90;;;;;;5034511;28;20515;-68
2022/12/21 03:39:22;;;;;;;5.47;3.70;;;8.80;99.90;;;;;;5034005;28;20933;-68
2022/12/21 03:41:57;;;;;;;4.67;4.13;;;8.70;99.90;;;;;;5034558;28;20471;-69
2022/12/21 03:44:32;;;;;;;5.10;4.17;;;8.70;99.90;;;;;;5016069;28;20420;-69
2022/12/21 03:47:01;;;;;;;4.77;4.37;;;8.70;99.90;;;;;;5016643;28;20420;-69
2022/12/21 03:49:36;;;;;;;7.93;3.93;;;8.60;99.90;;;;;;5033932;28;20417;-69
2022/12/21 03:52:07;;;;;;;5.10;4.63;;;8.70;99.90;;;;;;5034085;28;20471;-69
2022/12/21 03:54:45;;;;;;;4.33;3.93;;;8.70;99.90;;;;;;5034190;28;20413;-69
2022/12/21 03:57:11;;;;;;;4.37;4.03;;;8.70;99.90;;;;;;5034094;28;20499;-69
2022/12/21 03:59:41;;;;;;;5.87;4.07;;;8.60;99.90;;;;;;5033764;28;20509;-69
2022/12/21 04:02:18;;;;;;;4.97;4.13;;;8.60;99.90;;;;;;5033833;28;20433;-69
2022/12/21 04:04:55;;;;;;;5.47;4.97;;;8.60;99.90;;;;;;5033968;28;20460;-69
2022/12/21 04:07:24;;;;;;;7.40;4.43;;;8.60;99.90;;;;;;5034035;28;20515;-68
2022/12/21 04:09:58;;;;;;;6.70;4.37;;;8.60;99.90;;;;;;5033583;28;20781;-68
2022/12/21 04:12:36;;;;;;;5.90;4.77;;;8.60;99.90;;;;;;5033504;28;20477;-69
2022/12/21 04:19:57;;;;;;;6.20;4.30;;;8.60;99.90;;;;;;5026305;28;20487;-69
2022/12/21 04:21:01;;;;;;;5.33;4.70;;;8.60;99.90;;;;;;5033451;28;20425;-69
2022/12/21 04:28:55;;;;;;;5.23;4.67;;;8.60;99.90;;;;;;5033275;28;20472;-69
2022/12/21 04:31:21;;;;;;;5.50;4.60;;;8.60;99.90;;;;;;5033264;28;20485;-69
2022/12/21 04:33:46;;;;;;;7.83;4.30;;;8.60;99.90;;;;;;5033556;28;20225;-68
2022/12/21 04:38:56;;;;;;;5.47;4.70;;;8.70;99.90;;;;;;5033096;28;20176;-69
2022/12/21 04:41:21;;;;;;;8.63;4.60;;;8.70;99.90;;;;;;5033206;28;20440;-68
2022/12/21 04:43:46;;;;;;;7.00;4.40;;;8.70;99.90;;;;;;5033184;28;20189;-69
2022/12/21 04:46:14;;;;;;;5.23;4.10;;;8.80;99.90;;;;;;5021872;28;20170;-68
2022/12/21 04:48:41;;;;;;;4.80;4.00;;;8.80;99.90;;;;;;5023608;28;20170;-69
2022/12/21 04:51:12;;;;;;;5.00;4.27;;;8.80;99.90;;;;;;5023865;28;20928;-68
2022/12/21 04:53:38;;;;;;;5.00;4.60;;;8.80;99.90;;;;;;5021069;28;20797;-68
2022/12/21 04:56:04;;;;;;;5.07;4.57;;;8.80;99.90;;;;;;5012417;28;20414;-69
2022/12/21 04:58:31;;;;;;;8.37;4.07;;;8.90;99.90;;;;;;5012813;28;20785;-69
2022/12/21 05:00:57;;;;;;;5.30;3.70;;;8.90;99.90;;;;;;5013207;28;20162;-69
2022/12/21 05:03:22;;;;;;;3.60;3.30;;;8.90;99.90;;;;;;5013047;28;20425;-69
2022/12/21 05:05:48;;;;;;;4.40;3.83;;;9.00;99.90;;;;;;5013222;28;20183;-69
2022/12/21 05:08:13;;;;;;;4.30;3.73;;;9.00;99.90;;;;;;5012748;28;20175;-69
2022/12/21 05:10:40;;;;;;;5.73;4.10;;;9.00;99.90;;;;;;5013029;28;20222;-69
2022/12/21 05:13:05;;;;;;;3.67;3.37;;;9.00;99.90;;;;;;5012613;28;20622;-69
2022/12/21 05:15:35;;;;;;;4.90;3.47;;;9.00;99.90;;;;;;5012781;28;20441;-69
2022/12/21 05:18:01;;;;;;;5.93;4.20;;;9.00;99.90;;;;;;5012861;28;20174;-69
2022/12/21 05:20:26;;;;;;;4.67;4.27;;;9.00;99.90;;;;;;5012578;28;20425;-69
2022/12/21 05:22:52;;;;;;;7.60;4.10;;;9.00;99.90;;;;;;5012875;28;20241;-69
2022/12/21 05:25:17;;;;;;;4.20;3.07;;;9.00;99.90;;;;;;5012628;28;20717;-69
2022/12/21 05:27:43;;;;;;;5.27;4.70;;;9.00;99.90;;;;;;5012814;28;20167;-69
2022/12/21 05:30:09;;;;;;;4.73;3.73;;;8.90;99.90;;;;;;5012370;28;20175;-69
2022/12/21 05:32:34;;;;;;;5.37;4.97;;;8.90;99.90;;;;;;5012462;28;20238;-69
2022/12/21 05:35:00;;;;;;;4.23;3.63;;;8.90;99.90;;;;;;5012633;28;20453;-69
2022/12/21 05:37:27;;;;;;;5.20;3.50;;;8.90;99.90;;;;;;5012705;28;20246;-69
2022/12/21 05:39:53;;;;;;;10.37;4.37;;;9.00;99.90;;;;;;5012163;28;20214;-69
2022/12/21 05:42:19;;;;;;;5.57;4.00;;;9.00;99.90;;;;;;4994869;28;20450;-69
2022/12/21 05:44:44;;;;;;;4.90;3.63;;;9.00;99.90;;;;;;5012394;28;20213;-69
2022/12/21 05:47:10;;;;;;;4.70;3.67;;;9.00;99.90;;;;;;5012628;28;20179;-69
2022/12/21 05:49:36;;;;;;;7.03;5.30;;;9.00;99.90;;;;;;5012344;28;20321;-69
2022/12/21 05:52:01;;;;;;;4.97;3.90;;;9.00;99.90;;;;;;5012355;28;20245;-69
2022/12/21 05:54:27;;;;;;;4.53;4.13;;;9.00;99.90;;;;;;5012281;28;20498;-69
2022/12/21 05:56:52;;;;;;;4.53;3.47;;;9.00;99.90;;;;;;5012387;28;20930;-69
2022/12/21 05:59:18;;;;;;;10.53;4.87;;;9.00;99.90;;;;;;5012123;28;20179;-69
2022/12/21 06:01:43;;;;;;;5.50;4.30;;;9.00;99.90;;;;;;5012221;28;20194;-69
2022/12/21 06:04:09;;;;;;;4.50;3.47;;;9.00;99.90;;;;;;5012338;28;20186;-69
2022/12/21 06:06:34;;;;;;;5.00;4.00;;;9.00;99.90;;;;;;5013751;28;20177;-69
2022/12/21 06:09:00;;;;;;;4.43;4.03;;;9.00;99.90;;;;;;5015988;28;20539;-69
2022/12/21 06:11:27;;;;;;;5.20;4.00;;;9.00;99.90;;;;;;5039852;23;20207;-69
2022/12/21 06:13:53;;;;;;;6.27;4.00;;;9.00;99.90;;;;;;5034029;28;20276;-69
2022/12/21 06:16:22;;;;;;;4.87;4.47;;;9.00;99.90;;;;;;5035932;28;20458;-69
2022/12/21 06:18:48;;;;;;;4.67;4.20;;;9.00;99.90;;;;;;5035730;28;20835;-69
2022/12/21 06:21:15;;;;;;;17.27;7.43;;;9.00;99.90;;;;;;5035942;28;20420;-69
2022/12/21 06:23:41;;;;;;;5.00;4.07;;;9.00;99.90;;;;;;5035731;28;20433;-69
2022/12/21 06:26:10;;;;;;;7.60;5.13;;;9.00;99.90;;;;;;5035791;28;21229;-68
2022/12/21 06:28:35;;;;;;;6.87;4.30;;;9.10;99.90;;;;;;5035550;28;20420;-69
2022/12/21 06:31:07;;;;;;;5.10;4.60;;;9.10;99.90;;;;;;5035768;28;20416;-68
2022/12/21 06:33:33;;;;;;;5.00;4.60;;;9.10;99.90;;;;;;5035587;28;20261;-69
2022/12/21 06:35:58;;;;;;;6.17;4.73;;;9.10;99.90;;;;;;5035576;28;20934;-69
2022/12/21 06:38:24;;;;;;;4.03;3.70;;;9.10;99.90;;;;;;5035299;28;20219;-69
2022/12/21 06:40:54;;;;;;;5.37;4.93;;;9.10;99.90;;;;;;5035448;28;20232;-68
2022/12/21 06:43:20;;;;;;;10.10;6.63;;;9.10;99.90;;;;;;5035271;28;20812;-68
2022/12/21 06:45:55;;;;;;;7.03;6.30;;;9.10;99.90;;;;;;5035136;28;20423;-69
2022/12/21 06:48:22;;;;;;;6.00;4.23;;;9.10;99.90;;;;;;5035006;28;20193;-69
2022/12/21 06:50:56;;;;;;;6.77;5.40;;;9.10;99.90;;;;;;5035282;28;20412;-69
2022/12/21 06:53:27;;;;;;;5.07;4.20;;;9.10;99.90;;;;;;5034912;28;20464;-69
2022/12/21 06:56:02;;;;;;;8.23;4.13;;;9.10;99.90;;;;;;5035388;28;20801;-69
2022/12/21 06:58:28;;;;;;;6.77;4.50;;;9.10;99.90;;;;;;5034922;28;20486;-69
2022/12/21 07:00:54;;;;;;;4.83;4.33;;;9.10;99.90;;;;;;5035167;28;20422;-69
2022/12/21 07:03:21;;;;;;;11.83;5.60;;;9.10;99.90;;;;;;5035007;28;20819;-69
2022/12/21 07:05:46;;;;;;;5.43;4.93;;;9.10;99.90;;;;;;5035153;28;20198;-69
2022/12/21 07:08:12;;;;;;;10.77;4.00;;;9.10;99.90;;;;;;5034708;28;20455;-69
2022/12/21 07:10:38;;;;;;;5.73;4.77;;;9.10;99.90;;;;;;5034992;28;20175;-69
2022/12/21 07:13:04;;;;;;;7.60;4.37;;;9.10;99.90;;;;;;5034705;28;20224;-69
2022/12/21 07:15:33;;;;;;;7.30;5.10;;;9.10;99.90;;;;;;5034904;28;20852;-69
2022/12/21 07:17:59;;;;;;;4.93;4.43;;;9.10;99.90;;;;;;5033890;28;20409;-69
2022/12/21 07:20:24;;;;;;;6.50;5.37;;;9.10;99.90;;;;;;5034386;28;20787;-69
2022/12/21 07:22:50;;;;;;;7.70;5.37;;;9.10;99.90;;;;;;5034610;28;20198;-69
2022/12/21 07:25:15;;;;;;;6.40;4.17;;;9.10;99.90;;;;;;5034718;28;20174;-68
2022/12/21 07:27:41;;;;;;;5.53;4.27;;;9.10;99.90;;;;;;5034703;28;20170;-68
2022/12/21 07:30:07;;;;;;;6.30;5.20;;;9.10;99.90;;;;;;5034342;28;20178;-69
2022/12/21 07:32:33;;;;;;;5.67;3.93;;;9.10;99.90;;;;;;5034358;28;20210;-69
2022/12/21 07:34:58;;;;;;;4.57;4.20;;;9.10;99.90;;;;;;5034487;28;20555;-68
2022/12/21 07:37:24;;;;;;;6.60;5.20;;;9.10;99.90;;;;;;5034618;28;20171;-69
2022/12/21 07:39:49;;;;;;;4.50;3.80;;;9.10;99.90;;;;;;5034122;28;20182;-71
2022/12/21 07:42:15;;;;;;;4.40;4.00;;;9.10;99.90;;;;;;5034321;28;20205;-69
2022/12/21 07:44:40;;;;;;;7.00;4.53;;;9.10;99.90;;;;;;5034409;28;20632;-69
2022/12/21 07:47:06;;;;;;;6.00;4.20;;;9.10;99.90;;;;;;5034341;28;20643;-69
2022/12/21 07:49:31;;;;;;;4.73;4.30;;;9.10;99.90;;;;;;5033858;28;20174;-69
2022/12/21 07:51:57;;;;;;;7.30;4.27;;;9.10;99.90;;;;;;5034097;28;20565;-69
2022/12/21 07:54:23;;;;;;;5.83;4.20;;;9.10;99.90;;;;;;5034144;28;20181;-69
2022/12/21 07:56:48;;;;;;;4.87;4.47;;;9.10;99.90;;;;;;5034167;28;20172;-70
2022/12/21 07:59:14;;;;;;;7.60;4.60;;;9.10;99.90;;;;;;5033839;28;20174;-70
2022/12/21 08:01:39;;;;;;;5.90;3.80;;;9.10;99.90;;;;;;5033943;28;20173;-70
2022/12/21 08:04:07;;;;;;;4.93;4.27;;;9.10;99.90;;;;;;5033863;28;20201;-70
2022/12/21 08:06:33;;;;;;;4.90;4.10;;;9.10;99.90;;;;;;5034070;28;20181;-70
2022/12/21 08:08:59;;;;;;;8.90;5.30;;;9.10;99.90;;;;;;5033599;28;20451;-70
2022/12/21 08:11:24;;;;;;;6.03;4.27;;;9.10;99.90;;;;;;5033717;28;20488;-69
2022/12/21 08:13:50;;;;;;;10.17;4.50;;;9.10;99.90;;;;;;5033858;28;20235;-70
2022/12/21 08:16:18;;;;;;;4.10;3.80;;;9.10;99.90;;;;;;5032138;28;20166;-69
2022/12/21 08:18:44;;;;;;;5.57;4.73;;;9.10;99.90;;;;;;5005042;28;20932;-70
2022/12/21 08:21:10;;;;;;;13.07;5.80;;;9.10;99.90;;;;;;5020921;28;20424;-70
2022/12/21 08:23:36;;;;;;;8.03;5.90;;;9.10;99.90;;;;;;5033576;28;20745;-69
2022/12/21 08:26:03;;;;;;;5.53;5.03;;;9.10;99.90;;;;;;5033663;28;20655;-69
2022/12/21 08:28:29;;;;;;;5.57;5.00;;;9.10;99.90;;;;;;5030128;28;20428;-69
2022/12/21 08:31:09;;;;;;;6.53;4.40;;;9.10;99.90;;;;;;5033461;28;20776;-69
2022/12/21 08:33:35;;;;;;;8.63;5.20;;;9.10;99.90;;;;;;5033198;28;20732;-69
2022/12/21 08:36:00;;;;;;;5.73;5.17;;;9.10;99.90;;;;;;5033353;28;20421;-69
2022/12/21 08:38:26;;;;;;;7.93;5.20;;;9.10;99.90;;;;;;5029700;28;20436;-69
2022/12/21 08:40:52;;;;;;;8.20;5.03;;;9.10;99.90;;;;;;5033230;28;20636;-69
2022/12/21 08:43:18;;;;;;;6.10;4.73;;;9.10;99.90;;;;;;5033159;28;20201;-69
2022/12/21 08:45:44;;;;;;;7.27;5.40;;;9.10;99.90;;;;;;5033101;28;20186;-69
2022/12/21 08:48:10;;;;;;;4.87;4.33;;;9.10;99.90;;;;;;5029575;28;20428;-69
2022/12/21 08:50:36;;;;;;;4.53;4.07;;;9.10;99.90;;;;;;5032865;28;20189;-68
2022/12/21 08:53:02;;;;;;;4.97;4.00;;;9.10;99.90;;;;;;5032915;28;20472;-68
2022/12/21 08:55:29;;;;;;;17.20;5.07;;;9.10;99.90;;;;;;5033011;28;20182;-68
2022/12/21 08:57:54;;;;;;;5.43;4.83;;;9.10;99.90;;;;;;5012021;28;20186;-68
2022/12/21 09:00:20;;;;;;;6.40;5.10;;;9.10;99.90;;;;;;5032729;28;20420;-68
2022/12/21 09:02:45;;;;;;;5.93;4.30;;;9.10;99.90;;;;;;5032710;28;20197;-68
2022/12/21 09:05:11;;;;;;;7.13;4.60;;;9.10;99.90;;;;;;5032796;28;20180;-68
2022/12/21 09:07:36;;;;;;;7.90;4.27;;;9.10;99.90;;;;;;5029383;28;20178;-68
2022/12/21 09:10:02;;;;;;;4.73;4.33;;;9.10;99.90;;;;;;5032500;28;20170;-68
2022/12/21 09:12:28;;;;;;;5.13;4.63;;;9.10;99.90;;;;;;5032399;28;20252;-68
2022/12/21 09:14:53;;;;;;;4.87;4.47;;;9.10;99.90;;;;;;5032631;28;20202;-68
2022/12/21 09:17:19;;;;;;;4.83;4.00;;;9.10;99.90;;;;;;5029151;28;20836;-68
2022/12/21 09:19:44;;;;;;;5.63;5.13;;;9.10;99.90;;;;;;5032307;28;20177;-68
2022/12/21 09:22:12;;;;;;;8.03;4.50;;;9.10;99.90;;;;;;5014712;28;20201;-68
2022/12/21 09:24:37;;;;;;;5.53;4.87;;;9.10;99.90;;;;;;5032491;28;20166;-68
2022/12/21 09:27:03;;;;;;;5.07;4.67;;;9.10;99.90;;;;;;5029365;28;20988;-69
2022/12/21 09:29:29;;;;;;;4.83;4.40;;;9.10;99.90;;;;;;5035012;28;20174;-68
2022/12/21 09:31:55;;;;;;;5.53;4.77;;;9.10;99.90;;;;;;5052153;28;20713;-68
2022/12/21 09:34:20;;;;;;;6.07;5.47;;;9.10;99.90;;;;;;5052201;28;20440;-68
2022/12/21 09:36:46;;;;;;;10.13;5.00;;;9.10;99.90;;;;;;5050839;28;20995;-69
2022/12/21 09:39:11;;;;;;;5.40;4.90;;;9.10;99.90;;;;;;5029444;28;20198;-68
2022/12/21 09:41:48;;;;;;;8.70;4.70;;;9.10;99.90;;;;;;5031743;28;20173;-68
2022/12/21 09:44:18;;;;;;;6.00;4.20;;;9.10;99.90;;;;;;5032225;28;20170;-69
2022/12/21 09:46:48;;;;;;;6.23;5.20;;;9.20;99.90;;;;;;5031895;28;20504;-68
2022/12/21 09:49:18;;;;;;;10.70;4.90;;;9.20;99.90;;;;;;5029488;28;20424;-68
2022/12/21 09:51:55;;;;;;;4.83;3.73;;;9.20;99.90;;;;;;5031929;28;20468;-68
2022/12/21 09:54:32;;;;;;;8.80;5.30;;;9.20;99.90;;;;;;5032025;28;20437;-68
2022/12/21 09:56:57;;;;;;;5.53;5.00;;;9.20;99.90;;;;;;5029738;28;20444;-69
2022/12/21 09:59:23;;;;;;;6.30;4.57;;;9.20;99.90;;;;;;5030737;28;20421;-68
2022/12/21 10:02:07;;;;;;;8.40;5.27;;;9.20;99.90;;;;;;5031967;28;20671;-68
2022/12/21 10:04:49;;;;;;;6.77;4.40;;;9.30;99.90;;;;;;5031902;28;20170;-68
2022/12/21 10:07:28;;;;;;;6.47;5.87;;;9.30;99.90;;;;;;5028428;28;20531;-68
2022/12/21 10:10:22;;;;;;;6.40;5.20;;;9.30;99.90;;;;;;5031644;28;20416;-68
2022/12/21 10:13:18;;;;;;;8.03;5.67;;;9.40;99.90;;;;;;5031398;28;20540;-68
2022/12/21 10:16:22;;;;;;;5.23;4.60;;;9.40;99.90;;;;;;5031315;28;20794;-69
2022/12/21 10:19:25;;;;;;;5.33;4.83;;;9.50;99.90;;;;;;5029414;28;20486;-69
2022/12/21 10:22:05;;;;;;;5.33;4.40;;;9.60;99.90;;;;;;5031763;28;20523;-69
2022/12/21 10:24:44;;;;;;;4.60;4.20;;;9.70;99.90;;;;;;5031721;28;20918;-67
2022/12/21 10:27:39;;;;;;;5.50;5.00;;;9.70;99.90;;;;;;5029021;28;21170;-67
2022/12/21 10:30:11;;;;;;;6.00;4.47;;;9.80;99.90;;;;;;5031378;28;20427;-67
2022/12/21 10:32:37;;;;;;;10.70;5.47;;;9.80;99.90;;;;;;5031664;28;20473;-66
2022/12/21 10:35:22;;;;;;;5.37;4.93;;;9.80;99.90;;;;;;5031683;28;20420;-67
2022/12/21 10:37:53;;;;;;;6.20;4.37;;;9.80;99.90;;;;;;5028191;28;20417;-68
2022/12/21 10:40:23;;;;;;;6.63;4.93;;;9.80;99.90;;;;;;5015395;28;20788;-67
2022/12/21 10:42:51;;;;;;;6.80;5.20;;;9.70;99.90;;;;;;5011778;28;20429;-68
2022/12/21 10:45:19;;;;;;;4.77;4.37;;;9.70;99.90;;;;;;5012217;28;21307;-69
2022/12/21 10:47:45;;;;;;;4.33;3.93;;;9.80;99.90;;;;;;5028019;28;20830;-68
2022/12/21 10:50:19;;;;;;;6.70;4.97;;;10.00;99.90;;;;;;5031188;28;20495;-68
2022/12/21 10:52:50;;;;;;;4.77;3.87;;;10.60;99.90;;;;;;5031707;28;20259;-68
2022/12/21 10:55:18;;;;;;;4.63;4.33;;;11.60;99.90;;;;;;5034888;28;20425;-68
2022/12/21 10:58:05;;;;;;;6.60;4.27;;;11.80;99.90;;;;;;5025893;28;20768;-68
2022/12/21 11:00:37;;;;;;;3.87;3.57;;;12.60;99.90;;;;;;5034692;28;20457;-69
2022/12/21 11:03:05;;;;;;;3.37;3.07;;;14.40;99.90;;;;;;5035084;28;20447;-67
2022/12/21 11:05:33;;;;;;;4.00;2.80;;;15.30;99.90;;;;;;5034682;28;20455;-67
2022/12/21 11:08:31;;;;;;;3.23;2.93;;;15.10;99.90;;;;;;5031451;28;20427;-68
2022/12/21 11:11:02;;;;;;;5.60;3.53;;;14.60;99.90;;;;;;5035044;28;20940;-68
2022/12/21 11:13:32;;;;;;;4.83;3.90;;;14.20;99.90;;;;;;5034725;28;20471;-67
2022/12/21 11:16:09;;;;;;;4.10;3.70;;;13.30;99.90;;;;;;5035119;28;20405;-67
2022/12/21 11:18:34;;;;;;;4.53;3.30;;;13.40;99.90;;;;;;5031203;28;20428;-69
2022/12/21 11:21:02;;;;;;;6.10;3.13;;;15.00;99.90;;;;;;5034793;28;20435;-67
2022/12/21 11:23:28;;;;;;;3.50;3.20;;;17.50;99.90;;;;;;5034670;28;20227;-67
2022/12/21 11:25:55;;;;;;;4.13;3.40;;;17.90;99.90;;;;;;5034736;28;20515;-68
2022/12/21 11:28:22;;;;;;;3.80;3.10;;;16.50;99.90;;;;;;5030756;28;20178;-68
2022/12/21 11:31:03;;;;;;;4.60;3.33;;;14.90;99.90;;;;;;5034641;28;20417;-68
2022/12/21 11:33:30;;;;;;;6.80;4.97;;;13.50;99.90;;;;;;5034484;28;20496;-67
2022/12/21 11:36:14;;;;;;;4.50;4.00;;;13.10;99.90;;;;;;5034513;28;20424;-68
2022/12/21 11:38:41;;;;;;;5.40;3.93;;;12.70;99.90;;;;;;5030634;28;20413;-68
2022/12/21 11:41:20;;;;;;;17.37;13.23;;;12.60;99.90;;;;;;5034433;28;20496;-68
2022/12/21 11:43:48;;;;;;;9.37;8.23;;;14.10;99.90;;;;;;5034316;28;20451;-68
2022/12/21 11:46:53;;;;;;;11.30;5.90;;;16.80;99.90;;;;;;5034358;28;20461;-68
2022/12/21 11:50:00;;;;;;;4.80;3.13;;;18.40;99.90;;;;;;5032155;28;20527;-67
2022/12/21 11:52:31;;;;;;;3.87;3.57;;;19.50;99.90;;;;;;4996498;28;20525;-67
2022/12/21 11:55:03;;;;;;;3.53;3.20;;;19.40;99.90;;;;;;5034215;28;20421;-68
2022/12/21 11:57:50;;;;;;;4.20;2.90;;;19.30;99.90;;;;;;5031090;28;20428;-68
2022/12/21 12:00:21;;;;;;;4.87;4.47;;;18.30;99.90;;;;;;5014227;28;20836;-68
2022/12/21 12:03:12;;;;;;;3.70;3.13;;;17.30;99.90;;;;;;5014104;28;20449;-69
2022/12/21 12:06:06;;;;;;;2.10;1.90;;;15.90;99.90;;;;;;5013857;28;20437;-68
2022/12/21 12:08:56;;;;;;;2.50;2.30;;;14.40;99.90;;;;;;5002869;28;20855;-67
2022/12/21 12:11:27;;;;;;;3.47;3.17;;;13.60;99.90;;;;;;5033938;28;20463;-68
2022/12/21 12:14:14;;;;;;;2.77;2.23;;;13.10;99.90;;;;;;5034381;28;20428;-68
2022/12/21 12:17:30;;;;;;;2.40;2.17;;;13.00;99.90;;;;;;5033754;28;20413;-68
2022/12/21 12:20:26;;;;;;;2.23;2.03;;;13.30;99.90;;;;;;4998951;28;20428;-68
2022/12/21 12:23:13;;;;;;;2.87;2.67;;;13.40;99.90;;;;;;5033842;28;20507;-68
2022/12/21 12:25:53;;;;;;;4.57;2.60;;;13.20;99.90;;;;;;5033612;28;20832;-68
2022/12/21 12:28:35;;;;;;;3.33;3.00;;;13.00;99.90;;;;;;5029741;28;20416;-67
2022/12/21 12:31:01;;;;;;;3.33;3.03;;;12.80;99.90;;;;;;5033709;28;20405;-67
2022/12/21 12:33:48;;;;;;;3.20;2.90;;;12.70;99.90;;;;;;5033257;28;20465;-67
2022/12/21 12:36:51;;;;;;;2.67;2.47;;;13.00;99.90;;;;;;5033490;28;20170;-68
2022/12/21 12:39:34;;;;;;;9.23;6.40;;;13.20;99.90;;;;;;5030862;28;20428;-67
2022/12/21 12:42:17;;;;;;;3.40;2.30;;;14.40;99.90;;;;;;5033345;28;20467;-67
2022/12/21 12:45:01;;;;;;;4.07;1.70;;;15.40;99.90;;;;;;5033374;28;20906;-67
2022/12/21 12:47:30;;;;;;;2.40;2.20;;;15.20;99.90;;;;;;5030073;28;21001;-68
2022/12/21 12:50:14;;;;;;;3.03;1.93;;;15.90;99.90;;;;;;5032269;28;20929;-68
2022/12/21 12:52:54;;;;;;;2.57;2.20;;;16.70;99.90;;;;;;5032977;28;20464;-68
2022/12/21 12:55:38;;;;;;;2.87;2.67;;;16.00;99.90;;;;;;5027645;28;20448;-68
2022/12/21 12:58:13;;;;;;;2.50;2.13;;;14.50;99.90;;;;;;5002812;28;20448;-67
2022/12/21 13:01:07;;;;;;;2.70;2.50;;;13.60;99.90;;;;;;5032884;28;20503;-67
2022/12/21 13:03:53;;;;;;;2.37;2.17;;;12.90;99.90;;;;;;5032764;28;20520;-72
2022/12/21 13:06:30;;;;;;;2.90;2.70;;;12.50;99.90;;;;;;5032777;28;20998;-66
2022/12/21 13:09:15;;;;;;;6.23;2.50;;;12.40;99.90;;;;;;5029033;28;20432;-67
2022/12/21 13:11:50;;;;;;;3.20;2.60;;;12.30;99.90;;;;;;5032350;28;20523;-68
2022/12/21 13:14:30;;;;;;;3.83;2.87;;;12.20;99.90;;;;;;5032711;28;20939;-68
2022/12/21 13:17:04;;;;;;;3.83;2.20;;;12.10;99.90;;;;;;5029955;28;20417;-67
2022/12/21 13:19:32;;;;;;;4.47;2.40;;;12.00;99.90;;;;;;5028696;28;20437;-68
2022/12/21 13:22:02;;;;;;;2.93;2.10;;;12.10;99.90;;;;;;5032361;28;20510;-68
2022/12/21 13:24:43;;;;;;;2.60;2.40;;;12.10;99.90;;;;;;5032494;28;20459;-67
2022/12/21 13:27:18;;;;;;;5.50;2.60;;;12.10;99.90;;;;;;5029375;28;21027;-68
2022/12/21 13:30:12;;;;;;;2.63;2.37;;;12.00;99.90;;;;;;5006820;28;20516;-68
2022/12/21 13:32:44;;;;;;;2.83;2.10;;;12.00;99.90;;;;;;5005140;28;20474;-68
2022/12/21 13:35:23;;;;;;;2.40;2.20;;;12.00;99.90;;;;;;5012676;28;20500;-68
2022/12/21 13:38:09;;;;;;;4.20;3.27;;;12.00;99.90;;;;;;5018310;28;20423;-68